createdAt,value
2023-03-06T00:00:33.231Z,1.11
2023-03-06T00:03:00.978Z,1.23
2023-03-06T00:05:28.846Z,1.27
2023-03-06T00:07:56.424Z,1.27
2023-03-06T00:10:29.792Z,1.28
2023-03-06T00:13:17.019Z,1.27
2023-03-06T00:15:45.623Z,1.20
2023-03-06T00:18:13.181Z,1.21
2023-03-06T00:20:42.343Z,1.12
2023-03-06T00:23:10.629Z,1.16
2023-03-06T00:25:38.999Z,1.11
2023-03-06T00:28:06.532Z,1.07
2023-03-06T00:30:34.432Z,1.18
2023-03-06T00:33:02.009Z,1.20
2023-03-06T00:35:30.228Z,1.16
2023-03-06T00:37:59.949Z,0.95
2023-03-06T00:40:27.588Z,0.96
2023-03-06T00:42:54.847Z,0.93
2023-03-06T00:45:22.529Z,0.51
2023-03-06T00:47:50.086Z,0.75
2023-03-06T00:50:17.454Z,0.88
2023-03-06T00:52:45.107Z,0.70
2023-03-06T00:55:12.794Z,0.76
2023-03-06T00:57:41.196Z,0.88
2023-03-06T01:00:11.037Z,0.98
2023-03-06T01:02:38.796Z,0.74
2023-03-06T01:05:07.122Z,0.68
2023-03-06T01:07:36.696Z,0.89
2023-03-06T01:10:06.257Z,0.77
2023-03-06T01:12:33.558Z,0.60
2023-03-06T01:15:01.178Z,0.61
2023-03-06T01:17:29.206Z,0.68
2023-03-06T01:19:57.681Z,0.70
2023-03-06T01:22:25.330Z,0.67
2023-03-06T01:24:53.472Z,0.70
2023-03-06T01:27:21.895Z,0.64
2023-03-06T01:29:49.797Z,0.54
2023-03-06T01:32:17.280Z,0.47
2023-03-06T01:34:44.568Z,0.58
2023-03-06T01:37:12.211Z,0.58
2023-03-06T01:39:39.546Z,0.47
2023-03-06T01:42:07.326Z,0.60
2023-03-06T01:44:34.984Z,0.48
2023-03-06T01:47:04.957Z,0.52
2023-03-06T01:49:36.992Z,0.31
2023-03-06T01:52:12.062Z,0.30
2023-03-06T01:54:44.992Z,0.26
2023-03-06T01:57:20.872Z,0.25
2023-03-06T01:59:56.173Z,0.24
2023-03-06T02:02:24.912Z,0.33
2023-03-06T02:04:52.881Z,0.15
2023-03-06T02:07:21.788Z,0.20
2023-03-06T02:09:49.142Z,0.16
2023-03-06T02:12:19.226Z,0.10
2023-03-06T02:14:47.860Z,-0.15
2023-03-06T02:17:18.770Z,-0.09
2023-03-06T02:19:58.280Z,0.02
2023-03-06T02:22:33.538Z,-0.20
2023-03-06T02:25:15.530Z,-0.09
2023-03-06T02:27:43.378Z,-0.13
2023-03-06T02:30:15.353Z,-0.09
2023-03-06T02:32:43.152Z,-0.10
2023-03-06T02:35:19.989Z,-0.06
2023-03-06T02:37:47.997Z,-0.08
2023-03-06T02:40:18.957Z,0.03
2023-03-06T02:42:49.700Z,-0.21
2023-03-06T02:45:38.066Z,-0.31
2023-03-06T02:48:06.248Z,-0.37
2023-03-06T02:50:34.107Z,-0.19
2023-03-06T02:53:01.824Z,-0.18
2023-03-06T02:55:30.675Z,-0.17
2023-03-06T02:57:58.596Z,-0.17
2023-03-06T03:00:26.686Z,-0.08
2023-03-06T03:02:54.609Z,-0.13
2023-03-06T03:05:22.394Z,-0.46
2023-03-06T03:07:50.325Z,-0.42
2023-03-06T03:10:17.974Z,-0.40
2023-03-06T03:12:46.212Z,-0.60
2023-03-06T03:15:14.041Z,-0.58
2023-03-06T03:17:41.850Z,-0.67
2023-03-06T03:20:13.993Z,-0.61
2023-03-06T03:22:41.512Z,-0.52
2023-03-06T03:25:09.339Z,-0.47
2023-03-06T03:27:37.197Z,-0.51
2023-03-06T03:30:05.100Z,-0.57
2023-03-06T03:32:32.425Z,-0.74
2023-03-06T03:35:00.324Z,-0.78
2023-03-06T03:37:28.010Z,-0.59
2023-03-06T03:39:56.625Z,-0.53
2023-03-06T03:42:24.664Z,-0.62
2023-03-06T03:44:51.952Z,-0.88
2023-03-06T03:47:20.430Z,-0.69
2023-03-06T03:49:48.382Z,-0.80
2023-03-06T03:52:15.903Z,-0.69
2023-03-06T03:54:43.217Z,-0.79
2023-03-06T03:57:10.928Z,-0.81
2023-03-06T03:59:38.841Z,-0.91
2023-03-06T04:02:06.416Z,-0.98
2023-03-06T04:04:35.194Z,-1.07
2023-03-06T04:07:04.521Z,-0.89
2023-03-06T04:09:32.064Z,-0.83
2023-03-06T04:11:59.693Z,-0.81
2023-03-06T04:14:27.078Z,-0.76
2023-03-06T04:16:54.573Z,-0.87
2023-03-06T04:19:22.731Z,-0.84
2023-03-06T04:21:50.425Z,-0.81
2023-03-06T04:24:17.744Z,-0.93
2023-03-06T04:26:46.105Z,-0.98
2023-03-06T04:29:13.906Z,-0.90
2023-03-06T04:31:41.282Z,-0.96
2023-03-06T04:34:09.173Z,-0.94
2023-03-06T04:36:36.995Z,-0.96
2023-03-06T04:39:04.807Z,-1.02
2023-03-06T04:41:32.733Z,-1.04
2023-03-06T04:44:00.146Z,-1.61
2023-03-06T04:46:27.468Z,-1.31
2023-03-06T04:48:55.197Z,-1.26
2023-03-06T04:51:22.615Z,-1.24
2023-03-06T04:53:50.258Z,-1.16
2023-03-06T04:56:18.110Z,-1.25
2023-03-06T04:58:45.569Z,-1.26
2023-03-06T05:01:13.046Z,-1.10
2023-03-06T05:03:41.000Z,-1.22
2023-03-06T05:06:08.634Z,-1.18
2023-03-06T05:08:35.986Z,-1.16
2023-03-06T05:11:04.041Z,-1.23
2023-03-06T05:13:31.370Z,-1.15
2023-03-06T05:16:03.858Z,-0.94
2023-03-06T05:18:32.799Z,-1.16
2023-03-06T05:21:00.766Z,-1.42
2023-03-06T05:23:30.192Z,-1.27
2023-03-06T05:25:58.355Z,-1.23
2023-03-06T05:28:26.551Z,-0.98
2023-03-06T05:30:53.872Z,-0.94
2023-03-06T05:33:21.570Z,-0.78
2023-03-06T05:35:49.679Z,-0.70
2023-03-06T05:38:18.577Z,-0.75
2023-03-06T05:40:46.701Z,-0.60
2023-03-06T05:43:14.068Z,-0.75
2023-03-06T05:45:41.776Z,-0.67
2023-03-06T05:48:12.205Z,-0.46
2023-03-06T05:50:40.004Z,-0.82
2023-03-06T05:53:07.349Z,-0.58
2023-03-06T05:55:35.106Z,-0.61
2023-03-06T05:58:02.401Z,-0.73
2023-03-06T06:00:29.782Z,-0.56
2023-03-06T06:03:00.727Z,-0.51
2023-03-06T06:05:28.187Z,-0.55
2023-03-06T06:07:55.509Z,-0.54
2023-03-06T06:10:23.181Z,-0.45
2023-03-06T06:12:50.470Z,-0.72
2023-03-06T06:15:18.048Z,-0.67
2023-03-06T06:17:45.875Z,-0.36
2023-03-06T06:20:13.960Z,-0.11
2023-03-06T06:22:41.497Z,0.18
2023-03-06T06:25:09.498Z,0.42
2023-03-06T06:27:36.848Z,0.49
2023-03-06T06:30:05.551Z,0.61
2023-03-06T06:32:33.368Z,0.88
2023-03-06T06:35:00.753Z,1.42
2023-03-06T06:37:28.237Z,1.18
2023-03-06T06:39:55.905Z,1.34
2023-03-06T06:42:33.332Z,1.68
2023-03-06T06:45:05.397Z,1.81
2023-03-06T06:47:34.443Z,2.17
2023-03-06T06:50:02.045Z,2.60
2023-03-06T06:52:29.746Z,2.90
2023-03-06T06:54:57.018Z,3.09
2023-03-06T06:57:24.366Z,3.04
2023-03-06T06:59:53.969Z,2.64
2023-03-06T07:02:22.784Z,3.01
2023-03-06T07:05:03.196Z,3.01
2023-03-06T07:07:35.244Z,2.98
2023-03-06T07:10:08.925Z,3.08
2023-03-06T07:12:37.226Z,3.47
2023-03-06T07:15:06.312Z,3.71
2023-03-06T07:17:33.835Z,3.94
2023-03-06T07:20:01.603Z,4.23
2023-03-06T07:22:31.960Z,4.35
2023-03-06T07:25:06.333Z,4.41
2023-03-06T07:27:33.652Z,4.86
2023-03-06T07:30:01.046Z,5.32
2023-03-06T07:32:28.919Z,5.31
2023-03-06T07:35:12.925Z,5.75
2023-03-06T07:37:44.615Z,5.88
2023-03-06T07:40:12.600Z,5.97
2023-03-06T07:42:39.930Z,6.15
2023-03-06T07:45:12.502Z,6.41
2023-03-06T07:47:39.960Z,6.28
2023-03-06T07:50:08.036Z,6.29
2023-03-06T07:52:35.799Z,5.93
2023-03-06T07:55:03.226Z,6.08
2023-03-06T07:57:30.788Z,6.34
2023-03-06T07:59:58.374Z,6.77
2023-03-06T08:02:25.842Z,6.89
2023-03-06T08:04:54.934Z,7.11
2023-03-06T08:07:23.141Z,7.25
2023-03-06T08:09:50.784Z,7.06
2023-03-06T08:12:18.396Z,7.27
2023-03-06T08:14:45.722Z,7.54
2023-03-06T08:17:13.077Z,7.83
2023-03-06T08:19:40.752Z,7.81
2023-03-06T08:22:08.245Z,7.99
2023-03-06T08:24:35.549Z,8.27
2023-03-06T08:27:03.779Z,8.49
2023-03-06T08:29:32.295Z,8.62
2023-03-06T08:31:59.811Z,8.68
2023-03-06T08:34:27.507Z,8.87
2023-03-06T08:36:54.918Z,9.11
2023-03-06T08:39:23.861Z,9.16
2023-03-06T08:41:51.526Z,9.36
2023-03-06T08:44:18.781Z,9.39
2023-03-06T08:46:46.154Z,9.54
2023-03-06T08:49:14.101Z,9.21
2023-03-06T08:51:42.646Z,9.54
2023-03-06T08:54:13.099Z,9.92
2023-03-06T08:56:40.915Z,10.38
2023-03-06T08:59:09.573Z,9.86
2023-03-06T09:01:38.723Z,9.77
2023-03-06T09:04:12.014Z,10.02
2023-03-06T09:06:42.568Z,10.32
2023-03-06T09:09:10.623Z,10.48
2023-03-06T09:11:38.340Z,10.54
2023-03-06T09:14:06.011Z,10.54
2023-03-06T09:16:33.897Z,10.68
2023-03-06T09:19:01.277Z,10.82
2023-03-06T09:21:28.890Z,11.25
2023-03-06T09:23:57.151Z,10.90
2023-03-06T09:26:32.762Z,10.99
2023-03-06T09:29:03.857Z,10.81
2023-03-06T09:31:32.258Z,10.50
2023-03-06T09:33:59.557Z,10.29
2023-03-06T09:36:27.254Z,10.05
2023-03-06T09:38:54.609Z,10.17
2023-03-06T09:41:30.434Z,10.50
2023-03-06T09:44:14.804Z,10.68
2023-03-06T09:47:00.666Z,11.06
2023-03-06T09:50:09.950Z,11.30
2023-03-06T09:53:06.905Z,11.72
2023-03-06T09:55:39.852Z,11.50
2023-03-06T09:58:22.311Z,11.99
2023-03-06T10:00:59.238Z,12.09
2023-03-06T10:03:39.632Z,10.47
2023-03-06T10:06:13.245Z,10.83
2023-03-06T10:08:52.749Z,10.99
2023-03-06T10:11:26.484Z,11.07
2023-03-06T10:14:07.936Z,11.08
2023-03-06T10:16:35.346Z,11.80
2023-03-06T10:19:10.516Z,12.04
2023-03-06T10:22:03.372Z,12.20
2023-03-06T10:24:57.740Z,12.71
2023-03-06T10:27:43.994Z,12.64
2023-03-06T10:30:14.672Z,12.65
2023-03-06T10:32:58.691Z,12.92
2023-03-06T10:35:34.892Z,12.83
2023-03-06T10:38:24.240Z,12.73
2023-03-06T10:40:59.741Z,12.15
2023-03-06T10:43:27.755Z,12.32
2023-03-06T10:45:55.830Z,12.53
2023-03-06T10:48:26.464Z,12.01
2023-03-06T10:51:28.306Z,12.28
2023-03-06T10:54:01.809Z,12.57
2023-03-06T10:56:43.694Z,12.00
2023-03-06T10:59:21.675Z,11.44
2023-03-06T11:01:51.222Z,11.80
2023-03-06T11:04:33.905Z,12.27
2023-03-06T11:07:28.659Z,12.28
2023-03-06T11:09:59.360Z,12.39
2023-03-06T11:12:40.986Z,12.28
2023-03-06T11:15:14.816Z,13.03
2023-03-06T11:17:53.917Z,13.16
2023-03-06T11:20:41.232Z,13.15
2023-03-06T11:23:22.074Z,13.17
2023-03-06T11:25:56.518Z,12.79
2023-03-06T11:28:46.313Z,12.39
2023-03-06T11:31:21.208Z,12.24
2023-03-06T11:33:59.134Z,12.51
2023-03-06T11:36:33.930Z,12.82
2023-03-06T11:39:04.886Z,12.68
2023-03-06T11:41:58.330Z,12.37
2023-03-06T11:44:43.827Z,12.53
2023-03-06T11:47:16.800Z,12.42
2023-03-06T11:49:49.956Z,12.86
2023-03-06T11:52:56.315Z,13.09
2023-03-06T11:55:50.988Z,13.61
2023-03-06T11:59:00.985Z,13.98
2023-03-06T12:01:50.345Z,13.69
2023-03-06T12:04:48.836Z,14.00
2023-03-06T12:07:22.056Z,14.20
2023-03-06T12:09:55.400Z,14.07
2023-03-06T12:12:31.230Z,13.62
2023-03-06T12:15:15.503Z,13.12
2023-03-06T12:18:06.155Z,13.26
2023-03-06T12:21:17.340Z,13.23
2023-03-06T12:24:05.086Z,13.69
2023-03-06T12:26:57.045Z,14.16
2023-03-06T12:29:33.801Z,14.88
2023-03-06T12:32:23.158Z,14.73
2023-03-06T12:35:08.925Z,15.06
2023-03-06T12:38:08.890Z,15.30
2023-03-06T12:41:00.617Z,14.94
2023-03-06T12:43:40.617Z,14.31
2023-03-06T12:46:17.780Z,14.00
2023-03-06T12:49:08.351Z,13.99
2023-03-06T12:51:36.842Z,13.85
2023-03-06T12:54:04.641Z,14.15
2023-03-06T12:56:33.593Z,14.14
2023-03-06T12:59:02.745Z,15.01
2023-03-06T13:01:55.744Z,14.99
2023-03-06T13:04:47.993Z,14.69
2023-03-06T13:07:43.894Z,14.51
2023-03-06T13:10:28.006Z,14.48
2023-03-06T13:13:01.318Z,14.23
2023-03-06T13:15:40.890Z,14.29
2023-03-06T13:18:24.192Z,13.98
2023-03-06T13:20:56.202Z,13.75
2023-03-06T13:23:30.238Z,13.48
2023-03-06T13:26:00.035Z,13.47
2023-03-06T13:28:50.372Z,13.67
2023-03-06T13:31:36.579Z,13.79
2023-03-06T13:34:05.485Z,14.06
2023-03-06T13:36:39.559Z,13.88
2023-03-06T13:39:09.747Z,13.25
2023-03-06T13:41:58.531Z,12.21
2023-03-06T13:44:26.043Z,12.14
2023-03-06T13:47:02.453Z,11.66
2023-03-06T13:49:30.707Z,11.90
2023-03-06T13:52:11.002Z,12.11
2023-03-06T13:54:44.596Z,12.33
2023-03-06T13:57:15.022Z,12.24
2023-03-06T14:00:08.957Z,12.54
2023-03-06T14:02:43.431Z,12.56
2023-03-06T14:05:14.026Z,12.95
2023-03-06T14:07:48.087Z,13.07
2023-03-06T14:10:21.416Z,12.95
2023-03-06T14:12:49.094Z,12.57
2023-03-06T14:15:46.147Z,12.51
2023-03-06T14:18:16.918Z,12.53
2023-03-06T14:20:50.603Z,12.46
2023-03-06T14:23:21.387Z,12.54
2023-03-06T14:25:55.538Z,12.54
2023-03-06T14:28:31.646Z,12.37
2023-03-06T14:31:01.352Z,11.74
2023-03-06T14:33:37.477Z,11.99
2023-03-06T14:36:09.578Z,11.82
2023-03-06T14:38:45.417Z,11.95
2023-03-06T14:41:14.145Z,11.64
2023-03-06T14:43:41.930Z,11.73
2023-03-06T14:46:20.222Z,11.66
2023-03-06T14:48:49.356Z,11.52
2023-03-06T14:51:18.687Z,11.61
2023-03-06T14:53:49.135Z,11.45
2023-03-06T14:56:20.391Z,11.44
2023-03-06T14:59:03.267Z,11.53
2023-03-06T15:01:51.204Z,11.50
2023-03-06T15:05:04.352Z,11.36
2023-03-06T15:07:33.594Z,11.49
2023-03-06T15:10:01.275Z,11.45
2023-03-06T15:12:31.330Z,11.32
2023-03-06T15:15:10.659Z,11.09
2023-03-06T15:17:48.456Z,11.05
2023-03-06T15:21:05.322Z,11.17
2023-03-06T15:23:38.645Z,10.89
2023-03-06T15:26:29.368Z,10.35
2023-03-06T15:29:09.429Z,10.41
2023-03-06T15:31:42.762Z,10.40
2023-03-06T15:34:10.044Z,10.59
2023-03-06T15:36:49.214Z,10.64
2023-03-06T15:39:36.463Z,10.67
2023-03-06T15:42:18.327Z,10.79
2023-03-06T15:44:51.308Z,10.50
2023-03-06T15:47:19.676Z,10.69
2023-03-06T15:49:52.088Z,10.74
2023-03-06T15:52:21.644Z,10.62
2023-03-06T15:54:49.456Z,10.58
2023-03-06T15:57:25.382Z,10.47
2023-03-06T15:59:54.055Z,10.31
2023-03-06T16:02:23.719Z,10.33
2023-03-06T16:04:53.623Z,10.26
2023-03-06T16:07:21.032Z,10.36
2023-03-06T16:09:48.855Z,10.32
2023-03-06T16:12:21.650Z,10.21
2023-03-06T16:14:49.646Z,10.13
2023-03-06T16:17:17.656Z,9.98
2023-03-06T16:19:44.886Z,9.90
2023-03-06T16:22:12.329Z,9.78
2023-03-06T16:24:40.002Z,9.40
2023-03-06T16:27:15.392Z,9.49
2023-03-06T16:29:43.041Z,9.42
2023-03-06T16:32:11.366Z,9.61
2023-03-06T16:34:38.745Z,9.76
2023-03-06T16:37:06.595Z,9.47
2023-03-06T16:39:34.072Z,9.56
2023-03-06T16:42:01.409Z,9.55
2023-03-06T16:44:29.062Z,9.47
2023-03-06T16:46:56.370Z,9.44
2023-03-06T16:49:25.523Z,9.35
2023-03-06T16:51:53.726Z,9.23
2023-03-06T16:54:21.997Z,9.18
2023-03-06T16:56:49.341Z,9.11
2023-03-06T16:59:17.275Z,8.96
2023-03-06T17:01:44.834Z,8.91
2023-03-06T17:04:12.697Z,8.85
2023-03-06T17:06:41.707Z,8.85
2023-03-06T17:09:11.091Z,8.83
2023-03-06T17:11:43.572Z,8.79
2023-03-06T17:14:11.217Z,8.86
2023-03-06T17:16:40.586Z,8.95
2023-03-06T17:19:08.034Z,8.99
2023-03-06T17:21:38.547Z,8.95
2023-03-06T17:24:06.698Z,8.94
2023-03-06T17:26:36.709Z,8.91
2023-03-06T17:29:06.928Z,8.87
2023-03-06T17:31:34.390Z,8.94
2023-03-06T17:34:01.748Z,8.97
2023-03-06T17:36:31.906Z,8.98
2023-03-06T17:39:01.024Z,8.83
2023-03-06T17:41:28.794Z,8.93
2023-03-06T17:43:56.590Z,9.06
2023-03-06T17:46:24.416Z,9.14
2023-03-06T17:48:52.105Z,8.91
2023-03-06T17:51:19.457Z,8.92
2023-03-06T17:53:46.887Z,8.94
2023-03-06T17:56:15.768Z,8.92
2023-03-06T17:58:43.101Z,9.02
2023-03-06T18:01:16.844Z,9.08
2023-03-06T18:03:46.621Z,9.09
2023-03-06T18:06:14.950Z,9.16
2023-03-06T18:08:43.187Z,8.97
2023-03-06T18:11:11.506Z,8.79
2023-03-06T18:13:42.673Z,8.81
2023-03-06T18:16:12.340Z,8.90
2023-03-06T18:18:40.514Z,8.89
2023-03-06T18:21:10.377Z,8.74
2023-03-06T18:23:38.361Z,8.69
2023-03-06T18:26:15.504Z,8.61
2023-03-06T18:28:48.468Z,8.48
2023-03-06T18:31:26.804Z,8.22
2023-03-06T18:33:59.315Z,8.23
2023-03-06T18:36:29.933Z,8.35
2023-03-06T18:38:57.663Z,8.32
2023-03-06T18:41:25.340Z,8.22
2023-03-06T18:43:55.480Z,8.17
2023-03-06T18:46:23.692Z,8.21
2023-03-06T18:48:51.293Z,8.25
2023-03-06T18:51:20.339Z,8.34
2023-03-06T18:53:47.837Z,8.15
2023-03-06T18:56:21.035Z,8.34
2023-03-06T18:58:50.481Z,8.29
2023-03-06T19:01:18.079Z,8.13
2023-03-06T19:03:46.096Z,8.35
2023-03-06T19:06:17.046Z,7.99
2023-03-06T19:08:45.117Z,7.81
2023-03-06T19:11:14.968Z,7.74
2023-03-06T19:13:43.125Z,7.64
2023-03-06T19:16:18.503Z,7.41
2023-03-06T19:18:46.251Z,7.52
2023-03-06T19:21:16.722Z,7.43
2023-03-06T19:23:44.490Z,7.39
2023-03-06T19:26:12.830Z,7.29
2023-03-06T19:28:41.856Z,7.13
2023-03-06T19:31:20.668Z,7.31
2023-03-06T19:33:49.400Z,7.24
2023-03-06T19:36:17.672Z,7.26
2023-03-06T19:38:45.598Z,7.15
2023-03-06T19:41:15.416Z,7.01
2023-03-06T19:43:43.479Z,6.69
2023-03-06T19:46:14.378Z,6.69
2023-03-06T19:48:42.989Z,6.65
2023-03-06T19:51:11.109Z,6.81
2023-03-06T19:53:40.336Z,6.84
2023-03-06T19:56:09.498Z,6.91
2023-03-06T19:58:37.539Z,6.91
2023-03-06T20:01:11.905Z,7.11
2023-03-06T20:03:40.880Z,7.22
2023-03-06T20:06:13.847Z,7.40
2023-03-06T20:08:43.241Z,7.47
2023-03-06T20:11:20.608Z,7.63
2023-03-06T20:13:48.927Z,7.72
2023-03-06T20:16:19.778Z,7.79
2023-03-06T20:18:47.215Z,7.81
2023-03-06T20:21:15.662Z,7.87
2023-03-06T20:23:43.528Z,7.85
2023-03-06T20:26:13.072Z,7.86
2023-03-06T20:28:42.160Z,7.85
2023-03-06T20:31:29.815Z,7.86
2023-03-06T20:33:59.752Z,7.74
2023-03-06T20:36:31.374Z,7.76
2023-03-06T20:39:00.794Z,7.59
2023-03-06T20:41:29.811Z,7.39
2023-03-06T20:43:58.806Z,7.35
2023-03-06T20:46:27.096Z,7.31
2023-03-06T20:48:55.103Z,7.32
2023-03-06T20:51:28.924Z,7.50
2023-03-06T20:53:56.842Z,7.51
2023-03-06T20:56:26.629Z,7.31
2023-03-06T20:58:54.233Z,7.26
2023-03-06T21:01:24.520Z,7.20
2023-03-06T21:03:53.595Z,7.36
2023-03-06T21:06:21.599Z,7.22
2023-03-06T21:08:50.073Z,7.10
2023-03-06T21:11:18.312Z,7.03
2023-03-06T21:13:45.804Z,7.10
2023-03-06T21:16:19.075Z,7.07
2023-03-06T21:18:47.405Z,6.81
2023-03-06T21:21:18.642Z,6.52
2023-03-06T21:23:46.988Z,6.41
2023-03-06T21:26:17.562Z,6.51
2023-03-06T21:28:45.080Z,6.44
2023-03-06T21:31:14.750Z,6.48
2023-03-06T21:33:43.765Z,6.55
2023-03-06T21:36:11.551Z,6.18
2023-03-06T21:38:39.365Z,6.39
2023-03-06T21:41:12.958Z,6.25
2023-03-06T21:43:40.920Z,6.11
2023-03-06T21:46:09.390Z,5.98
2023-03-06T21:48:37.084Z,5.92
2023-03-06T21:51:10.672Z,6.14
2023-03-06T21:53:41.216Z,6.03
2023-03-06T21:56:09.195Z,5.99
2023-03-06T21:58:37.111Z,6.13
2023-03-06T22:01:18.772Z,6.16
2023-03-06T22:03:46.621Z,6.28
2023-03-06T22:06:17.352Z,6.31
2023-03-06T22:08:45.489Z,6.17
2023-03-06T22:11:16.033Z,6.01
2023-03-06T22:13:44.200Z,5.95
2023-03-06T22:16:12.918Z,6.04
2023-03-06T22:18:44.173Z,6.01
2023-03-06T22:21:13.538Z,6.09
2023-03-06T22:23:41.189Z,5.99
2023-03-06T22:26:13.776Z,6.08
2023-03-06T22:28:42.208Z,6.03
2023-03-06T22:31:14.840Z,5.96
2023-03-06T22:33:43.150Z,6.09
2023-03-06T22:36:13.846Z,6.10
2023-03-06T22:38:43.926Z,5.96
2023-03-06T22:41:13.442Z,6.03
2023-03-06T22:43:41.103Z,6.09
2023-03-06T22:46:14.665Z,6.22
2023-03-06T22:48:42.650Z,6.24
2023-03-06T22:51:20.972Z,6.31
2023-03-06T22:53:49.017Z,6.43
2023-03-06T22:56:18.790Z,6.61
2023-03-06T22:58:46.621Z,6.91
2023-03-06T23:01:20.325Z,6.97
2023-03-06T23:03:50.109Z,6.90
2023-03-06T23:06:24.247Z,7.00
2023-03-06T23:08:54.590Z,7.07
2023-03-06T23:11:23.626Z,7.22
2023-03-06T23:14:12.309Z,7.21
2023-03-06T23:16:58.303Z,7.09
2023-03-06T23:19:44.036Z,6.76
2023-03-06T23:22:30.081Z,7.05
2023-03-06T23:25:15.780Z,6.94
2023-03-06T23:27:43.434Z,7.05
2023-03-06T23:30:11.425Z,7.01
2023-03-06T23:32:38.881Z,7.22
2023-03-06T23:35:07.827Z,6.95
2023-03-06T23:37:35.077Z,6.81
2023-03-06T23:40:02.498Z,6.87
2023-03-06T23:42:30.238Z,6.76
2023-03-06T23:44:57.543Z,6.71
2023-03-06T23:47:25.044Z,6.93
2023-03-06T23:49:52.671Z,6.56
2023-03-06T23:52:19.974Z,6.59
2023-03-06T23:54:49.280Z,6.64
2023-03-06T23:57:17.011Z,6.57
2023-03-06T23:59:44.781Z,6.50
